CST,Max TemperatureF,Mean TemperatureF,Min TemperatureF,Max Dew PointF,MeanDew PointF,Min DewpointF,Max Humidity, Mean Humidity, Min Humidity, Max Sea Level PressureIn, Mean Sea Level PressureIn, Min Sea Level PressureIn, Max VisibilityMiles, Mean VisibilityMiles, Min VisibilityMiles, Max Wind SpeedMPH, Mean Wind SpeedMPH, Max Gust SpeedMPH,PrecipitationIn, CloudCover, Events, WindDirDegrees
2012-11-1,78,60,41,45,33,27,70,40,16,30.12,30.05,29.98,10,10,7,15,8,20,0.00,0,,231
2012-11-2,82,62,41,52,33,12,93,43,8,30.01,29.96,29.89,10,10,7,14,8,21,0.00,0,,250
2012-11-3,62,52,41,41,36,30,76,55,38,30.20,30.13,30.00,10,10,10,15,9,17,0.00,0,,59
2012-11-4,71,52,33,41,36,30,87,58,31,30.21,30.15,30.06,10,10,7,12,3,16,0.00,0,,215
2012-11-5,69,56,44,37,32,28,66,43,25,30.24,30.17,30.11,10,10,3,15,8,21,0.00,0,,7
2012-11-6,77,57,37,32,30,28,75,41,17,30.21,30.17,30.13,10,10,10,8,5,,0.00,0,,322
2012-11-7,77,58,39,39,34,30,70,43,19,30.20,30.10,30.00,10,10,7,17,6,25,0.00,0,,189
2012-11-8,82,62,41,46,33,21,87,43,10,30.00,29.94,29.88,10,10,10,18,9,22,0.00,0,,230
2012-11-9,78,64,50,50,42,30,88,47,17,29.93,29.88,29.82,10,10,10,22,12,28,0.00,1,Rain,229
2012-11-10,78,66,53,54,42,30,94,47,18,29.85,29.75,29.65,10,9,4,25,13,36,0.01,4,Rain,218
2012-11-11,53,42,30,36,17,-4,69,35,11,30.28,30.01,29.80,10,10,10,26,12,33,0.00,2,,298
2012-11-12,51,36,21,21,15,9,80,48,19,30.43,30.38,30.29,10,10,7,8,3,,0.00,0,,191
2012-11-13,55,42,28,21,17,12,64,43,21,30.41,30.31,30.19,10,10,10,17,8,23,0.00,0,,190
2012-11-14,62,44,26,27,20,14,64,42,19,30.34,30.26,30.19,10,10,10,13,7,21,0.00,0,,232
2012-11-15,62,47,32,28,22,18,70,44,18,30.31,30.21,30.15,10,10,7,12,5,18,0.00,0,,341
2012-11-16,62,47,32,41,33,19,81,62,39,30.36,30.30,30.25,10,10,7,14,6,17,0.00,0,,134
2012-11-17,62,48,35,45,39,34,93,69,45,30.29,30.22,30.15,10,10,10,18,8,23,0.00,2,,179
2012-11-18,64,52,41,52,44,36,94,70,48,30.15,30.11,30.07,10,10,7,16,8,20,0.00,2,,203
2012-11-19,69,54,39,50,37,27,100,61,20,30.20,30.14,30.10,10,8,0,13,7,,0.00,1,Fog,279
2012-11-20,69,51,33,34,30,23,81,48,17,30.28,30.23,30.19,10,10,2,9,4,,0.00,0,,159
2012-11-21,73,53,33,50,39,28,87,63,34,30.23,30.16,30.05,10,10,4,18,7,25,0.00,0,,214
2012-11-22,73,60,46,50,37,21,100,53,14,30.30,30.05,29.98,10,10,5,20,11,26,0.00,0,,274
2012-11-23,53,43,33,30,20,12,65,39,22,30.55,30.45,30.31,10,10,10,23,12,28,0.01,0,,57
2012-11-24,64,48,32,32,22,14,57,39,21,30.42,30.17,29.95,10,10,10,21,10,29,0.00,0,,221
2012-11-25,69,50,32,32,21,12,80,39,11,29.95,29.87,29.83,10,10,10,13,7,,0.00,0,,276
2012-11-26,53,42,30,32,24,14,65,50,36,30.38,30.10,29.84,10,10,10,22,11,29,0.00,0,,1
2012-11-27,55,38,21,27,22,14,80,55,33,30.42,30.31,30.22,10,10,7,14,7,18,0.00,0,,242
2012-11-28,73,52,32,36,25,18,75,45,13,30.27,30.20,30.13,10,10,10,15,9,20,0.00,0,,227
2012-11-29,73,56,39,37,31,23,81,47,20,30.14,30.05,29.99,10,10,7,20,11,25,0.00,0,,243
2012-11-30,73,54,35,30,26,21,65,36,15,30.06,30.00,29.95,10,10,10,17,10,23,0.00,0,,260